Master Jet — 5BKD3 — position and weather

sailwx.info

Track history (hours):
 
Tides and Currents Weather Stations Pressure Air Temp Water Temp Dewpoint Dewpoint Depression Visibility Wind Speed Wind Dir Waves Ship Positions

Master Jet

Last reported at 2014-Jul-29 14:34 UTC. Time now 2014-Jul-29 14:51 UTC.
Position N 37°19' E 025°18'.

Length 74 m; draft 2.9 m.

Type: Ship. MMSI: 209349000.

Date/timePositionNaut miles runAvg speedWind from/ knotsBaromVisibWave heightAir tempDewpointWater temp
2014-Jul-29 14:34N 37°19' E 025°18'1817.7
2014-Jul-29 13:33N 37°01' E 025°18'1919.2
2014-Jul-29 12:34N 36°42' E 025°16'2120.5
2014-Jul-29 11:33N 36°23' E 025°26'0 0.0
2014-Jul-29 10:33N 36°23' E 025°26'0 0.0
2014-Jul-29 09:33N 36°23' E 025°26'0 0.0
2014-Jul-29 08:33N 36°23' E 025°26'0 0.0
2014-Jul-29 07:33N 36°23' E 025°26'0 0.0
2014-Jul-29 06:33N 36°23' E 025°26'0 0.0
2014-Jul-29 05:33N 36°23' E 025°26'0 0.0
2014-Jul-29 04:33N 36°23' E 025°26'0 0.0
2014-Jul-29 03:33N 36°23' E 025°26'0 0.0
2014-Jul-29 02:33N 36°23' E 025°26'0 0.0
2014-Jul-29 01:33N 36°23' E 025°26'0 0.0
2014-Jul-29 00:33N 36°23' E 025°26'0 0.0
2014-Jul-28 23:33N 36°23' E 025°26'0 0.4
2014-Jul-28 22:33N 36°23' E 025°25'2323.2
2014-Jul-28 21:34N 36°44' E 025°37'1110.8
2014-Jul-28 20:34N 36°50' E 025°49'1716.9
2014-Jul-28 19:33N 36°54' E 025°28'1615.9
2014-Jul-28 18:33N 37°09' E 025°21'1918.8
2014-Jul-28 17:33N 37°28' E 025°19'2922.7
2014-Jul-28 16:17N 37°42' E 024°47'2129.2
2014-Jul-28 15:33N 37°52' E 024°24'16 8.0
2014-Jul-28 13:31N 38°01' E 024°06'3228.9
2014-Jul-28 12:25N 37°44' E 024°40'2428.6
2014-Jul-28 11:34N 37°32' E 025°07'1110.9
2014-Jul-28 10:34N 37°25' E 025°17'1918.5
2014-Jul-28 09:33N 37°07' E 025°20'1716.4
2014-Jul-28 08:33N 36°56' E 025°36'1111.3
2014-Jul-28 07:34N 36°51' E 025°49'2827.6
2014-Jul-28 06:34N 36°32' E 025°24'9 8.7
2014-Jul-28 05:33N 36°23' E 025°26'0 0.0
2014-Jul-28 04:33N 36°23' E 025°26'0 0.0
2014-Jul-28 03:33N 36°23' E 025°26'0 0.0
2014-Jul-28 02:33N 36°23' E 025°26'0 0.0
2014-Jul-28 01:33N 36°23' E 025°26'0 0.0
2014-Jul-28 00:33N 36°23' E 025°26'0 0.0
2014-Jul-27 23:33N 36°23' E 025°26'0 0.0
2014-Jul-27 22:32N 36°23' E 025°26'0 0.0
2014-Jul-27 21:33N 36°23' E 025°26'0 0.0
2014-Jul-27 20:33N 36°23' E 025°26'0 0.0
2014-Jul-27 19:33N 36°23' E 025°26'0 0.0
2014-Jul-27 18:33N 36°23' E 025°26'0 0.0
2014-Jul-27 17:32N 36°23' E 025°26'0 0.0
2014-Jul-27 16:33N 36°23' E 025°26'0 0.0
2014-Jul-27 15:33N 36°23' E 025°26'0 0.0
2014-Jul-27 14:32N 36°23' E 025°26'0 0.0
2014-Jul-27 13:33N 36°23' E 025°26'0 0.0
2014-Jul-27 12:32N 36°23' E 025°26'0 0.0
2014-Jul-27 11:29N 36°23' E 025°26'9 9.3
2014-Jul-27 10:33N 36°29' E 025°18'2726.7
2014-Jul-27 09:34N 36°56' E 025°17'1918.9
2014-Jul-27 08:34N 37°14' E 025°20'1414.3
2014-Jul-27 07:34N 37°29' E 025°17'2827.2
2014-Jul-27 06:31N 37°32' E 024°42'3626.9
2014-Jul-27 05:11N 37°37' E 023°57'1626.6
2014-Jul-27 04:33N 37°46' E 023°39'11 2.2
2014-Jul-26 23:33N 37°57' E 023°39'0 0.0
2014-Jul-26 22:33N 37°57' E 023°39'0 0.0
2014-Jul-26 21:33N 37°57' E 023°39'0 0.0
2014-Jul-26 20:33N 37°57' E 023°39'0 0.0
2014-Jul-26 19:33N 37°57' E 023°39'1615.6
2014-Jul-26 18:33N 37°42' E 023°46'5826.3
2014-Jul-26 16:21N 37°33' E 024°58'1721.7
2014-Jul-26 15:33N 37°28' E 025°19'2020.2
2014-Jul-26 14:34N 37°08' E 025°21'1413.7
2014-Jul-26 13:33N 36°55' E 025°16'1717.0
2014-Jul-26 12:33N 36°38' E 025°16'1616.3
2014-Jul-26 11:33N 36°23' E 025°26'2322.8
2014-Jul-26 10:34N 36°44' E 025°14'2423.6
2014-Jul-26 09:34N 37°06' E 025°22'1717.1
2014-Jul-26 08:34N 37°23' E 025°17'9 9.5
2014-Jul-26 07:34N 37°29' E 025°08'3125.8
2014-Jul-26 06:22N 37°31' E 024°30'3426.2
2014-Jul-26 05:04N 37°39' E 023°48'1325.3
2014-Jul-26 04:34N 37°49' E 023°38'8 7.7
2014-Jul-26 03:33N 37°57' E 023°39'0 0.0
2014-Jul-26 02:33N 37°57' E 023°39'0 0.0
2014-Jul-26 01:33N 37°57' E 023°39'0 0.0
2014-Jul-26 00:33N 37°57' E 023°39'0 0.0
2014-Jul-25 23:33N 37°57' E 023°39'0 0.0
2014-Jul-25 22:33N 37°57' E 023°39'0 0.0
2014-Jul-25 21:33N 37°57' E 023°39'0 0.0
2014-Jul-25 20:30N 37°57' E 023°39'0 0.1
2014-Jul-25 19:34N 37°57' E 023°38'1716.7
2014-Jul-25 18:33N 37°41' E 023°47'3227.3
2014-Jul-25 17:23N 37°31' E 024°25'2627.6
2014-Jul-25 16:27N 37°31' E 024°57'1819.9
2014-Jul-25 15:33N 37°28' E 025°19'2221.6
2014-Jul-25 14:33N 37°06' E 025°22'1615.5
2014-Jul-25 13:33N 36°52' E 025°15'1413.9
2014-Jul-25 12:34N 36°38' E 025°16'1716.6
2014-Jul-25 11:33N 36°23' E 025°26'1818.5
2014-Jul-25 10:34N 36°40' E 025°16'2726.8
2014-Jul-25 09:33N 37°06' E 025°20'1817.9
2014-Jul-25 08:34N 37°24' E 025°17'1110.9
2014-Jul-25 07:34N 37°31' E 025°06'2925.7
2014-Jul-25 06:26N 37°31' E 024°30'4523.5
2014-Jul-25 04:32N 37°49' E 023°38'8 1.0
2014-Jul-24 20:33N 37°57' E 023°39'0 0.0
2014-Jul-24 19:33N 37°57' E 023°39'1 0.7
2014-Jul-24 18:33N 37°56' E 023°38'4823.7
2014-Jul-24 16:33N 37°31' E 024°29'2828.2
2014-Jul-24 15:34N 37°30' E 025°04'1514.9
2014-Jul-24 14:34N 37°20' E 025°18'1817.9
2014-Jul-24 13:34N 37°02' E 025°18'2020.0
2014-Jul-24 12:34N 36°42' E 025°16'2120.6
2014-Jul-24 11:33N 36°23' E 025°26'10 9.8
2014-Jul-24 10:34N 36°30' E 025°17'2727.0
2014-Jul-24 09:34N 36°57' E 025°17'1717.3
2014-Jul-24 08:34N 37°14' E 025°19'1414.3
2014-Jul-24 07:34N 37°28' E 025°15'2727.0
2014-Jul-24 06:33N 37°31' E 024°41'5225.7
2014-Jul-24 04:33N 37°47' E 023°39'10 9.7
2014-Jul-24 03:33N 37°57' E 023°39'0 0.0
2014-Jul-24 02:34N 37°57' E 023°39'0 0.0
2014-Jul-24 01:33N 37°57' E 023°39'0 0.0
2014-Jul-24 00:33N 37°57' E 023°39'0 0.0
2014-Jul-23 23:34N 37°57' E 023°39'0 0.0
2014-Jul-23 22:34N 37°57' E 023°39'0 0.0
2014-Jul-23 21:34N 37°57' E 023°39'0 0.0
2014-Jul-23 20:33N 37°57' E 023°39'0 0.0
2014-Jul-23 19:33N 37°57' E 023°39'1615.9
2014-Jul-23 18:33N 37°42' E 023°45'5125.7
2014-Jul-23 16:33N 37°31' E 024°49'2524.6
2014-Jul-23 15:34N 37°28' E 025°19'1919.3
2014-Jul-23 14:34N 37°09' E 025°21'1313.2
2014-Jul-23 13:33N 36°56' E 025°16'1615.8
2014-Jul-23 12:34N 36°40' E 025°16'1918.5
2014-Jul-23 11:32N 36°23' E 025°26'1414.5
2014-Jul-23 10:34N 36°37' E 025°23'2726.1
2014-Jul-23 09:33N 37°03' E 025°18'1515.1
2014-Jul-23 08:34N 37°18' E 025°19'1211.9
2014-Jul-23 07:34N 37°30' E 025°14'2827.6
2014-Jul-23 06:33N 37°32' E 024°40'2826.5
2014-Jul-23 05:30N 37°35' E 024°04'2425.6
2014-Jul-23 04:33N 37°47' E 023°38'10 2.4
2014-Jul-23 00:33N 37°57' E 023°39'0 0.0
2014-Jul-22 23:33N 37°57' E 023°39'0 0.0
2014-Jul-22 22:33N 37°57' E 023°39'0 0.0
2014-Jul-22 21:33N 37°57' E 023°39'0 0.0
2014-Jul-22 20:33N 37°57' E 023°39'0 0.0
2014-Jul-22 19:33N 37°57' E 023°39'1 1.5
2014-Jul-22 18:34N 37°55' E 023°37'2825.2
2014-Jul-22 17:28N 37°36' E 024°02'2527.0
2014-Jul-22 16:33N 37°31' E 024°33'2727.5
2014-Jul-22 15:34N 37°29' E 025°07'1313.0
2014-Jul-22 14:33N 37°20' E 025°18'1918.9
2014-Jul-22 13:33N 37°01' E 025°18'1918.6
2014-Jul-22 12:33N 36°42' E 025°16'2120.6
2014-Jul-22 11:33N 36°23' E 025°26'7 7.3
2014-Jul-22 10:33N 36°27' E 025°18'2726.6
2014-Jul-22 09:32N 36°54' E 025°16'1818.2
2014-Jul-22 08:34N 37°12' E 025°20'1616.2
2014-Jul-22 07:33N 37°28' E 025°18'2828.0
2014-Jul-22 06:33N 37°31' E 024°43'2828.0
2014-Jul-22 05:32N 37°34' E 024°07'2626.7
2014-Jul-22 04:33N 37°47' E 023°39'9 9.5
2014-Jul-22 03:34N 37°57' E 023°39'0 0.0
2014-Jul-22 02:34N 37°57' E 023°39'0 0.0
2014-Jul-22 01:33N 37°57' E 023°39'0 0.0
2014-Jul-22 00:33N 37°57' E 023°39'0 0.0
2014-Jul-21 23:34N 37°57' E 023°39'0 0.0
2014-Jul-21 22:34N 37°57' E 023°39'0 0.0
2014-Jul-21 21:34N 37°57' E 023°39'0 0.0
2014-Jul-21 20:34N 37°57' E 023°39'0 0.0
2014-Jul-21 20:18N 37°57' E 023°39'0 0.2
2014-Jul-21 19:34N 37°57' E 023°38'3222.5
2014-Jul-21 18:08N 37°34' E 024°07'1627.1
2014-Jul-21 17:33N 37°31' E 024°27'2625.9
2014-Jul-21 16:32N 37°31' E 025°00'1515.5
2014-Jul-21 15:33N 37°28' E 025°19'2221.8
2014-Jul-21 14:33N 37°06' E 025°22'1515.1
2014-Jul-21 13:33N 36°52' E 025°15'1514.8
2014-Jul-21 12:33N 36°38' E 025°16'1614.6
2014-Jul-21 11:26N 36°23' E 025°26'1921.9
2014-Jul-21 10:34N 36°41' E 025°15'2626.3
2014-Jul-21 09:33N 37°06' E 025°21'1616.3
2014-Jul-21 08:34N 37°22' E 025°17'1211.7
2014-Jul-21 07:33N 37°31' E 025°06'2726.9
2014-Jul-21 06:32N 37°31' E 024°32'4522.8
2014-Jul-21 04:33N 37°47' E 023°38'3 0.3
2014-Jul-20 19:33N 37°50' E 023°40'7123.8
2014-Jul-20 16:34N 37°31' E 025°08'1111.0
2014-Jul-20 15:33N 37°23' E 025°17'1817.6
2014-Jul-20 14:33N 37°06' E 025°22'2222.0
2014-Jul-20 13:33N 36°45' E 025°14'1515.4
2014-Jul-20 12:33N 36°30' E 025°18'9 8.9
2014-Jul-20 11:33N 36°23' E 025°24'2525.4
2014-Jul-20 10:33N 36°47' E 025°15'2020.2
2014-Jul-20 09:33N 37°06' E 025°22'1616.0
2014-Jul-20 08:33N 37°22' E 025°18'9 8.9
2014-Jul-20 07:33N 37°29' E 025°12'2727.0
2014-Jul-20 06:33N 37°31' E 024°38'11 0.9
2014-Jul-19 18:13N 37°31' E 024°23'1928.4
2014-Jul-19 17:33N 37°31' E 024°47'2625.9
2014-Jul-19 16:33N 37°28' E 025°19'2019.8
2014-Jul-19 15:33N 37°08' E 025°21'  
Track history (hours):
 
Tides and Currents Weather Stations Pressure Air Temp Water Temp Dewpoint Dewpoint Depression Visibility Wind Speed Wind Dir Waves Ship Positions

Master Jet

Last reported at 2014-Jul-29 14:34 UTC. Time now 2014-Jul-29 14:51 UTC.
Position N 37°19' E 025°18'.

Length 74 m; draft 2.9 m.

Type: Ship. MMSI: 209349000.

Date/timePositionNaut miles runAvg speedWind from/ knotsBaromVisibWave heightAir tempDewpointWater temp
2014-Jul-29 14:34N 37°19' E 025°18'1817.7
2014-Jul-29 13:33N 37°01' E 025°18'1919.2
2014-Jul-29 12:34N 36°42' E 025°16'2120.5
2014-Jul-29 11:33N 36°23' E 025°26'0 0.0
2014-Jul-29 10:33N 36°23' E 025°26'0 0.0
2014-Jul-29 09:33N 36°23' E 025°26'0 0.0
2014-Jul-29 08:33N 36°23' E 025°26'0 0.0
2014-Jul-29 07:33N 36°23' E 025°26'0 0.0
2014-Jul-29 06:33N 36°23' E 025°26'0 0.0
2014-Jul-29 05:33N 36°23' E 025°26'0 0.0
2014-Jul-29 04:33N 36°23' E 025°26'0 0.0
2014-Jul-29 03:33N 36°23' E 025°26'0 0.0
2014-Jul-29 02:33N 36°23' E 025°26'0 0.0
2014-Jul-29 01:33N 36°23' E 025°26'0 0.0
2014-Jul-29 00:33N 36°23' E 025°26'0 0.0
2014-Jul-28 23:33N 36°23' E 025°26'0 0.4
2014-Jul-28 22:33N 36°23' E 025°25'2323.2
2014-Jul-28 21:34N 36°44' E 025°37'1110.8
2014-Jul-28 20:34N 36°50' E 025°49'1716.9
2014-Jul-28 19:33N 36°54' E 025°28'1615.9
2014-Jul-28 18:33N 37°09' E 025°21'1918.8
2014-Jul-28 17:33N 37°28' E 025°19'2922.7
2014-Jul-28 16:17N 37°42' E 024°47'2129.2
2014-Jul-28 15:33N 37°52' E 024°24'16 8.0
2014-Jul-28 13:31N 38°01' E 024°06'3228.9
2014-Jul-28 12:25N 37°44' E 024°40'2428.6
2014-Jul-28 11:34N 37°32' E 025°07'1110.9
2014-Jul-28 10:34N 37°25' E 025°17'1918.5
2014-Jul-28 09:33N 37°07' E 025°20'1716.4
2014-Jul-28 08:33N 36°56' E 025°36'1111.3
2014-Jul-28 07:34N 36°51' E 025°49'2827.6
2014-Jul-28 06:34N 36°32' E 025°24'9 8.7
2014-Jul-28 05:33N 36°23' E 025°26'0 0.0
2014-Jul-28 04:33N 36°23' E 025°26'0 0.0
2014-Jul-28 03:33N 36°23' E 025°26'0 0.0
2014-Jul-28 02:33N 36°23' E 025°26'0 0.0
2014-Jul-28 01:33N 36°23' E 025°26'0 0.0
2014-Jul-28 00:33N 36°23' E 025°26'0 0.0
2014-Jul-27 23:33N 36°23' E 025°26'0 0.0
2014-Jul-27 22:32N 36°23' E 025°26'0 0.0
2014-Jul-27 21:33N 36°23' E 025°26'0 0.0
2014-Jul-27 20:33N 36°23' E 025°26'0 0.0
2014-Jul-27 19:33N 36°23' E 025°26'0 0.0
2014-Jul-27 18:33N 36°23' E 025°26'0 0.0
2014-Jul-27 17:32N 36°23' E 025°26'0 0.0
2014-Jul-27 16:33N 36°23' E 025°26'0 0.0
2014-Jul-27 15:33N 36°23' E 025°26'0 0.0
2014-Jul-27 14:32N 36°23' E 025°26'0 0.0
2014-Jul-27 13:33N 36°23' E 025°26'0 0.0
2014-Jul-27 12:32N 36°23' E 025°26'0 0.0
2014-Jul-27 11:29N 36°23' E 025°26'9 9.3
2014-Jul-27 10:33N 36°29' E 025°18'2726.7
2014-Jul-27 09:34N 36°56' E 025°17'1918.9
2014-Jul-27 08:34N 37°14' E 025°20'1414.3
2014-Jul-27 07:34N 37°29' E 025°17'2827.2
2014-Jul-27 06:31N 37°32' E 024°42'3626.9
2014-Jul-27 05:11N 37°37' E 023°57'1626.6
2014-Jul-27 04:33N 37°46' E 023°39'11 2.2
2014-Jul-26 23:33N 37°57' E 023°39'0 0.0
2014-Jul-26 22:33N 37°57' E 023°39'0 0.0
2014-Jul-26 21:33N 37°57' E 023°39'0 0.0
2014-Jul-26 20:33N 37°57' E 023°39'0 0.0
2014-Jul-26 19:33N 37°57' E 023°39'1615.6
2014-Jul-26 18:33N 37°42' E 023°46'5826.3
2014-Jul-26 16:21N 37°33' E 024°58'1721.7
2014-Jul-26 15:33N 37°28' E 025°19'2020.2
2014-Jul-26 14:34N 37°08' E 025°21'1413.7
2014-Jul-26 13:33N 36°55' E 025°16'1717.0
2014-Jul-26 12:33N 36°38' E 025°16'1616.3
2014-Jul-26 11:33N 36°23' E 025°26'2322.8
2014-Jul-26 10:34N 36°44' E 025°14'2423.6
2014-Jul-26 09:34N 37°06' E 025°22'1717.1
2014-Jul-26 08:34N 37°23' E 025°17'9 9.5
2014-Jul-26 07:34N 37°29' E 025°08'3125.8
2014-Jul-26 06:22N 37°31' E 024°30'3426.2
2014-Jul-26 05:04N 37°39' E 023°48'1325.3
2014-Jul-26 04:34N 37°49' E 023°38'8 7.7
2014-Jul-26 03:33N 37°57' E 023°39'0 0.0
2014-Jul-26 02:33N 37°57' E 023°39'0 0.0
2014-Jul-26 01:33N 37°57' E 023°39'0 0.0
2014-Jul-26 00:33N 37°57' E 023°39'0 0.0
2014-Jul-25 23:33N 37°57' E 023°39'0 0.0
2014-Jul-25 22:33N 37°57' E 023°39'0 0.0
2014-Jul-25 21:33N 37°57' E 023°39'0 0.0
2014-Jul-25 20:30N 37°57' E 023°39'0 0.1
2014-Jul-25 19:34N 37°57' E 023°38'1716.7
2014-Jul-25 18:33N 37°41' E 023°47'3227.3
2014-Jul-25 17:23N 37°31' E 024°25'2627.6
2014-Jul-25 16:27N 37°31' E 024°57'1819.9
2014-Jul-25 15:33N 37°28' E 025°19'2221.6
2014-Jul-25 14:33N 37°06' E 025°22'1615.5
2014-Jul-25 13:33N 36°52' E 025°15'1413.9
2014-Jul-25 12:34N 36°38' E 025°16'1716.6
2014-Jul-25 11:33N 36°23' E 025°26'1818.5
2014-Jul-25 10:34N 36°40' E 025°16'2726.8
2014-Jul-25 09:33N 37°06' E 025°20'1817.9
2014-Jul-25 08:34N 37°24' E 025°17'1110.9
2014-Jul-25 07:34N 37°31' E 025°06'2925.7
2014-Jul-25 06:26N 37°31' E 024°30'4523.5
2014-Jul-25 04:32N 37°49' E 023°38'8 1.0
2014-Jul-24 20:33N 37°57' E 023°39'0 0.0
2014-Jul-24 19:33N 37°57' E 023°39'1 0.7
2014-Jul-24 18:33N 37°56' E 023°38'4823.7
2014-Jul-24 16:33N 37°31' E 024°29'2828.2
2014-Jul-24 15:34N 37°30' E 025°04'1514.9
2014-Jul-24 14:34N 37°20' E 025°18'1817.9
2014-Jul-24 13:34N 37°02' E 025°18'2020.0
2014-Jul-24 12:34N 36°42' E 025°16'2120.6
2014-Jul-24 11:33N 36°23' E 025°26'10 9.8
2014-Jul-24 10:34N 36°30' E 025°17'2727.0
2014-Jul-24 09:34N 36°57' E 025°17'1717.3
2014-Jul-24 08:34N 37°14' E 025°19'1414.3
2014-Jul-24 07:34N 37°28' E 025°15'2727.0
2014-Jul-24 06:33N 37°31' E 024°41'5225.7
2014-Jul-24 04:33N 37°47' E 023°39'10 9.7
2014-Jul-24 03:33N 37°57' E 023°39'0 0.0
2014-Jul-24 02:34N 37°57' E 023°39'0 0.0
2014-Jul-24 01:33N 37°57' E 023°39'0 0.0
2014-Jul-24 00:33N 37°57' E 023°39'0 0.0
2014-Jul-23 23:34N 37°57' E 023°39'0 0.0
2014-Jul-23 22:34N 37°57' E 023°39'0 0.0
2014-Jul-23 21:34N 37°57' E 023°39'0 0.0
2014-Jul-23 20:33N 37°57' E 023°39'0 0.0
2014-Jul-23 19:33N 37°57' E 023°39'1615.9
2014-Jul-23 18:33N 37°42' E 023°45'5125.7
2014-Jul-23 16:33N 37°31' E 024°49'2524.6
2014-Jul-23 15:34N 37°28' E 025°19'1919.3
2014-Jul-23 14:34N 37°09' E 025°21'1313.2
2014-Jul-23 13:33N 36°56' E 025°16'1615.8
2014-Jul-23 12:34N 36°40' E 025°16'1918.5
2014-Jul-23 11:32N 36°23' E 025°26'1414.5
2014-Jul-23 10:34N 36°37' E 025°23'2726.1
2014-Jul-23 09:33N 37°03' E 025°18'1515.1
2014-Jul-23 08:34N 37°18' E 025°19'1211.9
2014-Jul-23 07:34N 37°30' E 025°14'2827.6
2014-Jul-23 06:33N 37°32' E 024°40'2826.5
2014-Jul-23 05:30N 37°35' E 024°04'2425.6
2014-Jul-23 04:33N 37°47' E 023°38'10 2.4
2014-Jul-23 00:33N 37°57' E 023°39'0 0.0
2014-Jul-22 23:33N 37°57' E 023°39'0 0.0
2014-Jul-22 22:33N 37°57' E 023°39'0 0.0
2014-Jul-22 21:33N 37°57' E 023°39'0 0.0
2014-Jul-22 20:33N 37°57' E 023°39'0 0.0
2014-Jul-22 19:33N 37°57' E 023°39'1 1.5
2014-Jul-22 18:34N 37°55' E 023°37'2825.2
2014-Jul-22 17:28N 37°36' E 024°02'2527.0
2014-Jul-22 16:33N 37°31' E 024°33'2727.5
2014-Jul-22 15:34N 37°29' E 025°07'1313.0
2014-Jul-22 14:33N 37°20' E 025°18'1918.9
2014-Jul-22 13:33N 37°01' E 025°18'1918.6
2014-Jul-22 12:33N 36°42' E 025°16'2120.6
2014-Jul-22 11:33N 36°23' E 025°26'7 7.3
2014-Jul-22 10:33N 36°27' E 025°18'2726.6
2014-Jul-22 09:32N 36°54' E 025°16'1818.2
2014-Jul-22 08:34N 37°12' E 025°20'1616.2
2014-Jul-22 07:33N 37°28' E 025°18'2828.0
2014-Jul-22 06:33N 37°31' E 024°43'2828.0
2014-Jul-22 05:32N 37°34' E 024°07'2626.7
2014-Jul-22 04:33N 37°47' E 023°39'9 9.5
2014-Jul-22 03:34N 37°57' E 023°39'0 0.0
2014-Jul-22 02:34N 37°57' E 023°39'0 0.0
2014-Jul-22 01:33N 37°57' E 023°39'0 0.0
2014-Jul-22 00:33N 37°57' E 023°39'0 0.0
2014-Jul-21 23:34N 37°57' E 023°39'0 0.0
2014-Jul-21 22:34N 37°57' E 023°39'0 0.0
2014-Jul-21 21:34N 37°57' E 023°39'0 0.0
2014-Jul-21 20:34N 37°57' E 023°39'0 0.0
2014-Jul-21 20:18N 37°57' E 023°39'0 0.2
2014-Jul-21 19:34N 37°57' E 023°38'3222.5
2014-Jul-21 18:08N 37°34' E 024°07'1627.1
2014-Jul-21 17:33N 37°31' E 024°27'2625.9
2014-Jul-21 16:32N 37°31' E 025°00'1515.5
2014-Jul-21 15:33N 37°28' E 025°19'2221.8
2014-Jul-21 14:33N 37°06' E 025°22'1515.1
2014-Jul-21 13:33N 36°52' E 025°15'1514.8
2014-Jul-21 12:33N 36°38' E 025°16'1614.6
2014-Jul-21 11:26N 36°23' E 025°26'1921.9
2014-Jul-21 10:34N 36°41' E 025°15'2626.3
2014-Jul-21 09:33N 37°06' E 025°21'1616.3
2014-Jul-21 08:34N 37°22' E 025°17'1211.7
2014-Jul-21 07:33N 37°31' E 025°06'2726.9
2014-Jul-21 06:32N 37°31' E 024°32'4522.8
2014-Jul-21 04:33N 37°47' E 023°38'3 0.3
2014-Jul-20 19:33N 37°50' E 023°40'7123.8
2014-Jul-20 16:34N 37°31' E 025°08'1111.0
2014-Jul-20 15:33N 37°23' E 025°17'1817.6
2014-Jul-20 14:33N 37°06' E 025°22'2222.0
2014-Jul-20 13:33N 36°45' E 025°14'1515.4
2014-Jul-20 12:33N 36°30' E 025°18'9 8.9
2014-Jul-20 11:33N 36°23' E 025°24'2525.4
2014-Jul-20 10:33N 36°47' E 025°15'2020.2
2014-Jul-20 09:33N 37°06' E 025°22'1616.0
2014-Jul-20 08:33N 37°22' E 025°18'9 8.9
2014-Jul-20 07:33N 37°29' E 025°12'2727.0
2014-Jul-20 06:33N 37°31' E 024°38'11 0.9
2014-Jul-19 18:13N 37°31' E 024°23'1928.4
2014-Jul-19 17:33N 37°31' E 024°47'2625.9
2014-Jul-19 16:33N 37°28' E 025°19'2019.8
2014-Jul-19 15:33N 37°08' E 025°21'  

Dump ship's entire track history